createdAt,value
2019-03-10T00:00:37.562Z,1.50
2019-03-10T00:05:32.163Z,1.37
2019-03-10T00:10:26.829Z,1.63
2019-03-10T00:15:21.545Z,1.50
2019-03-10T00:20:16.241Z,1.80
2019-03-10T00:25:12.584Z,1.70
2019-03-10T00:30:16.816Z,1.70
2019-03-10T00:35:11.703Z,1.73
2019-03-10T00:40:27.162Z,1.60
2019-03-10T00:46:05.427Z,1.90
2019-03-10T00:51:28.676Z,1.83
2019-03-10T00:56:23.336Z,1.90
2019-03-10T01:01:17.929Z,1.90
2019-03-10T01:06:12.577Z,1.60
2019-03-10T01:11:07.314Z,1.70
2019-03-10T01:16:02.726Z,1.80
2019-03-10T01:20:59.975Z,1.80
2019-03-10T01:25:54.572Z,1.80
2019-03-10T01:31:02.546Z,1.73
2019-03-10T01:35:57.139Z,2.13
2019-03-10T01:40:51.726Z,1.97
2019-03-10T01:45:46.506Z,2.00
2019-03-10T01:50:41.082Z,1.70
2019-03-10T01:55:35.671Z,1.77
2019-03-10T02:00:30.335Z,2.00
2019-03-10T02:05:24.934Z,2.10
2019-03-10T02:10:19.536Z,1.80
2019-03-10T02:15:16.711Z,2.10
2019-03-10T02:20:15.852Z,2.60
2019-03-10T02:25:11.056Z,2.30
2019-03-10T02:30:10.175Z,2.10
2019-03-10T02:35:05.965Z,2.60
2019-03-10T02:40:00.569Z,2.30
2019-03-10T02:44:55.143Z,2.67
2019-03-10T02:49:49.750Z,2.60
2019-03-10T02:54:44.341Z,2.33
2019-03-10T02:59:38.952Z,2.83
2019-03-10T03:04:33.589Z,2.60
2019-03-10T03:09:28.178Z,3.10
2019-03-10T03:14:22.801Z,2.80
2019-03-10T03:19:17.369Z,3.60
2019-03-10T03:24:11.987Z,2.90
2019-03-10T03:29:06.648Z,2.73
2019-03-10T03:34:01.282Z,2.73
2019-03-10T03:39:03.917Z,2.70
2019-03-10T03:43:58.512Z,2.50
2019-03-10T03:48:53.136Z,2.50
2019-03-10T03:53:47.721Z,2.70
2019-03-10T03:58:42.388Z,2.37
2019-03-10T04:03:36.982Z,2.70
2019-03-10T04:08:31.574Z,2.70
2019-03-10T04:13:26.200Z,2.30
2019-03-10T04:18:20.829Z,2.30
2019-03-10T04:23:15.404Z,2.10
2019-03-10T04:28:09.992Z,2.13
2019-03-10T04:33:04.688Z,2.13
2019-03-10T04:37:59.283Z,2.40
2019-03-10T04:42:53.913Z,2.57
2019-03-10T04:47:48.522Z,2.27
2019-03-10T04:52:43.100Z,2.10
2019-03-10T04:57:39.328Z,2.37
2019-03-10T05:02:34.007Z,2.20
2019-03-10T05:07:28.580Z,1.97
2019-03-10T05:12:23.179Z,1.70
2019-03-10T05:17:17.756Z,0.80
2019-03-10T05:22:12.347Z,0.77
2019-03-10T05:27:06.949Z,0.70
2019-03-10T05:32:01.593Z,0.43
2019-03-10T05:36:56.231Z,0.70
2019-03-10T05:41:50.910Z,0.73
2019-03-10T05:46:45.505Z,0.90
2019-03-10T05:51:40.121Z,1.00
2019-03-10T05:56:34.792Z,1.03
2019-03-10T06:01:29.381Z,0.97
2019-03-10T06:06:24.121Z,0.90
2019-03-10T06:11:18.707Z,0.90
2019-03-10T06:16:13.289Z,0.93
2019-03-10T06:21:07.896Z,0.97
2019-03-10T06:26:02.497Z,1.00
2019-03-10T06:30:57.067Z,0.90
2019-03-10T06:35:51.655Z,0.80
2019-03-10T06:40:46.272Z,0.77
2019-03-10T06:45:40.853Z,0.83
2019-03-10T06:50:35.445Z,0.50
2019-03-10T06:55:30.048Z,0.40
2019-03-10T07:00:24.625Z,0.60
2019-03-10T07:05:19.224Z,0.43
2019-03-10T07:10:16.296Z,0.60
2019-03-10T07:15:13.405Z,0.40
2019-03-10T07:20:14.820Z,0.20
2019-03-10T07:25:09.555Z,0.20
2019-03-10T07:30:07.454Z,0.20
2019-03-10T07:35:09.562Z,0.40
2019-03-10T07:40:20.410Z,0.20
2019-03-10T07:45:22.570Z,0.30
2019-03-10T07:50:34.589Z,0.40
2019-03-10T07:55:34.828Z,0.30
2019-03-10T08:00:48.905Z,0.50
2019-03-10T08:05:45.128Z,0.27
2019-03-10T08:10:42.439Z,0.10
2019-03-10T08:15:44.112Z,0.40
2019-03-10T08:20:46.243Z,0.40
2019-03-10T08:25:44.894Z,0.30
2019-03-10T08:30:44.170Z,0.40
2019-03-10T08:35:44.242Z,0.30
2019-03-10T08:40:43.181Z,0.30
2019-03-10T08:45:45.304Z,0.47
2019-03-10T08:50:48.422Z,0.40
2019-03-10T08:55:53.385Z,0.30
2019-03-10T09:01:05.352Z,0.47
2019-03-10T09:06:01.613Z,0.37
2019-03-10T09:10:57.866Z,0.50
2019-03-10T09:16:12.483Z,0.40
2019-03-10T09:21:11.393Z,0.43
2019-03-10T09:26:07.639Z,0.40
2019-03-10T09:31:09.374Z,0.63
2019-03-10T09:36:08.541Z,0.40
2019-03-10T09:41:02.890Z,0.70
2019-03-10T09:46:01.785Z,0.73
2019-03-10T09:51:13.188Z,0.40
2019-03-10T09:56:12.073Z,0.70
2019-03-10T10:01:08.311Z,1.07
2019-03-10T10:06:04.564Z,0.40
2019-03-10T10:11:11.206Z,0.60
2019-03-10T10:16:25.500Z,0.30
2019-03-10T10:21:39.676Z,0.37
2019-03-10T10:26:51.003Z,0.30
2019-03-10T10:31:45.367Z,0.30
2019-03-10T10:36:44.062Z,0.43
2019-03-10T10:41:40.317Z,0.60
2019-03-10T10:46:39.223Z,0.50
2019-03-10T10:51:50.896Z,0.60
2019-03-10T10:57:03.144Z,0.60
2019-03-10T11:02:05.205Z,0.60
2019-03-10T11:07:01.987Z,0.40
2019-03-10T11:11:58.224Z,0.50
2019-03-10T11:17:00.280Z,0.77
2019-03-10T11:21:56.511Z,0.40
2019-03-10T11:26:52.749Z,0.43
2019-03-10T11:31:51.919Z,0.80
2019-03-10T11:36:50.529Z,0.80
2019-03-10T11:41:49.803Z,0.80
2019-03-10T11:46:48.791Z,0.80
2019-03-10T11:51:45.553Z,0.70
2019-03-10T11:56:59.635Z,0.70
2019-03-10T12:01:55.846Z,0.60
2019-03-10T12:07:01.133Z,0.40
2019-03-10T12:11:55.774Z,0.40
2019-03-10T12:16:50.513Z,0.60
2019-03-10T12:21:45.110Z,0.60
2019-03-10T12:26:39.698Z,0.60
2019-03-10T12:31:34.329Z,0.50
2019-03-10T12:36:28.935Z,0.30
2019-03-10T12:41:23.547Z,0.70
2019-03-10T12:46:18.130Z,0.40
2019-03-10T12:51:12.724Z,0.30
2019-03-10T12:56:07.472Z,0.30
2019-03-10T13:01:06.206Z,0.40
2019-03-10T13:05:58.527Z,0.30
2019-03-10T13:10:53.128Z,0.30
2019-03-10T13:15:47.716Z,0.40
2019-03-10T13:20:42.319Z,0.40
2019-03-10T13:25:36.935Z,0.37
2019-03-10T13:30:31.599Z,0.30
2019-03-10T13:35:26.184Z,0.20
2019-03-10T13:40:20.790Z,0.30
2019-03-10T13:45:19.588Z,0.40
2019-03-10T13:50:18.513Z,0.30
2019-03-10T13:55:13.456Z,0.30
2019-03-10T14:00:25.835Z,0.30
2019-03-10T14:05:20.653Z,0.23
2019-03-10T14:10:15.381Z,0.23
2019-03-10T14:15:17.959Z,0.27
2019-03-10T14:20:14.673Z,0.20
2019-03-10T14:25:12.866Z,0.40
2019-03-10T14:30:14.053Z,0.30
2019-03-10T14:35:11.362Z,0.20
2019-03-10T14:40:16.269Z,0.10
2019-03-10T14:45:15.020Z,0.30
2019-03-10T14:50:13.210Z,0.50
2019-03-10T14:55:12.092Z,0.20
2019-03-10T15:00:11.258Z,0.30
2019-03-10T15:05:07.561Z,0.90
2019-03-10T15:10:02.162Z,1.00
2019-03-10T15:14:56.778Z,0.80
2019-03-10T15:19:51.381Z,0.93
2019-03-10T15:24:46.039Z,0.70
2019-03-10T15:29:40.648Z,1.33
2019-03-10T15:34:35.248Z,0.87
2019-03-10T15:39:29.870Z,1.00
2019-03-10T15:44:24.491Z,1.00
2019-03-10T15:49:19.087Z,1.57
2019-03-10T15:54:13.701Z,1.20
2019-03-10T15:59:08.354Z,1.23
2019-03-10T16:04:18.657Z,0.90
2019-03-10T16:09:14.452Z,1.00
2019-03-10T16:14:09.087Z,1.03
2019-03-10T16:19:03.758Z,1.00
2019-03-10T16:23:58.347Z,1.00
2019-03-10T16:28:52.929Z,0.70
2019-03-10T16:33:47.529Z,1.00
2019-03-10T16:38:42.127Z,1.03
2019-03-10T16:43:36.746Z,1.20
2019-03-10T16:48:31.316Z,1.20
2019-03-10T16:53:25.911Z,1.30
2019-03-10T16:58:20.512Z,1.20
2019-03-10T17:03:15.120Z,1.10
2019-03-10T17:08:09.719Z,1.20
2019-03-10T17:13:04.313Z,1.20
2019-03-10T17:17:58.905Z,1.23
2019-03-10T17:22:53.505Z,1.40
2019-03-10T17:27:48.336Z,1.47
2019-03-10T17:32:43.077Z,1.63
2019-03-10T17:37:37.762Z,1.57
2019-03-10T17:42:32.344Z,1.47
2019-03-10T17:47:27.041Z,1.40
2019-03-10T17:52:21.706Z,1.57
2019-03-10T17:57:16.315Z,1.50
2019-03-10T18:02:10.913Z,1.73
2019-03-10T18:07:05.758Z,1.80
2019-03-10T18:12:00.364Z,1.20
2019-03-10T18:16:54.986Z,1.23
2019-03-10T18:21:49.567Z,1.20
2019-03-10T18:26:44.229Z,1.40
2019-03-10T18:31:38.832Z,1.57
2019-03-10T18:36:33.449Z,1.60
2019-03-10T18:41:28.056Z,1.63
2019-03-10T18:46:22.650Z,1.90
2019-03-10T18:51:17.239Z,1.80
2019-03-10T18:56:11.909Z,1.80
2019-03-10T19:01:07.088Z,1.80
2019-03-10T19:06:01.692Z,1.90
2019-03-10T19:10:56.291Z,2.40
2019-03-10T19:15:50.884Z,2.17
2019-03-10T19:20:45.481Z,2.00
2019-03-10T19:25:40.181Z,2.17
2019-03-10T19:30:34.746Z,2.10
2019-03-10T19:35:29.361Z,2.53
2019-03-10T19:40:25.031Z,2.13
2019-03-10T19:45:22.413Z,2.53
2019-03-10T19:50:27.590Z,2.60
2019-03-10T19:55:22.607Z,2.60
2019-03-10T20:00:21.503Z,2.40
2019-03-10T20:05:16.757Z,2.47
2019-03-10T20:10:15.642Z,2.30
2019-03-10T20:15:22.387Z,2.20
2019-03-10T20:20:20.820Z,2.40
2019-03-10T20:25:16.927Z,2.20
2019-03-10T20:30:23.731Z,2.97
2019-03-10T20:35:18.317Z,2.43
2019-03-10T20:40:26.571Z,2.17
2019-03-10T20:45:21.272Z,1.60
2019-03-10T20:50:23.186Z,1.70
2019-03-10T20:55:17.852Z,1.67
2019-03-10T21:00:18.697Z,1.83
2019-03-10T21:05:13.929Z,1.40
2019-03-10T21:10:27.930Z,1.23
2019-03-10T21:15:26.004Z,1.30
2019-03-10T21:20:25.294Z,1.20
2019-03-10T21:25:26.890Z,1.00
2019-03-10T21:30:24.765Z,1.10
2019-03-10T21:35:19.422Z,1.40
2019-03-10T21:40:26.528Z,1.40
2019-03-10T21:45:21.167Z,1.30
2019-03-10T21:50:18.363Z,1.50
2019-03-10T21:55:37.419Z,1.33
2019-03-10T22:00:32.032Z,1.40
2019-03-10T22:05:26.625Z,1.23
2019-03-10T22:10:27.497Z,1.30
2019-03-10T22:15:21.738Z,1.53
2019-03-10T22:20:21.075Z,1.83
2019-03-10T22:25:17.367Z,1.40
2019-03-10T22:30:23.554Z,1.60
2019-03-10T22:35:18.302Z,1.57
2019-03-10T22:40:19.600Z,1.57
2019-03-10T22:45:19.560Z,1.57
2019-03-10T22:50:16.059Z,1.77
2019-03-10T22:55:12.842Z,1.80
2019-03-10T23:00:39.767Z,1.50
2019-03-10T23:05:34.332Z,1.50
2019-03-10T23:10:28.947Z,2.10
2019-03-10T23:15:23.558Z,1.83
2019-03-10T23:20:18.257Z,1.30
2019-03-10T23:25:13.400Z,1.80
2019-03-10T23:30:16.963Z,1.80
2019-03-10T23:35:11.702Z,1.63
2019-03-10T23:40:17.526Z,1.93
2019-03-10T23:45:15.110Z,2.73
2019-03-10T23:50:13.031Z,2.67
2019-03-10T23:55:11.224Z,2.50
